Southeast Iowa Regional Airport
KBRL : now visible

Airfield :











YOU CAN JOIN US ON...

 
LOGIN :

Register | Disclaimer

   EN    FR    IT 

 









Legend :    VFR   Marginal VFR   IFR   Intensive IFR   Very Intensive IFR
Visi :
Ceiling :
>= 8 km
>= 3000ft
5 to 8 km
1000 to 3000 ft
1500m to 5 km
500 to 1000 ft
800 to 1500m
200 to 500 ft
< 800m
< 200 ft
Symbols :   Thunderstorms  Fog  Heavy snow  Heavy precipitations  Wind > 20 kt






- Airport Elevation : 698 ft
- IATA code : BRL


KBRL - Southeast Iowa Regional

CURRENT METAR :
  • 202153Z AUTO 33009KT 10SM BKN028 OVC039 21/13 A2958 RMK AO2 RAB06E15 SLP013 P0000 T02060133

EXPIRED METARs :
  • 202143Z AUTO 34011KT 10SM BKN028 OVC037 20/13 A2958 RMK AO2 RAB06E15 P0000 T02000133
  • 202053Z AUTO 33010KT 10SM SCT038 BKN048 BKN070 21/15 A2955 RMK AO2 SLP002 T02060150 51027
  • 201953Z AUTO 31008KT 10SM FEW042 BKN060 BKN070 21/16 A2952 RMK AO2 SLP993 T02110156

TAF KBRL
Valid from the 20 at 18:00 until the 21 at 18:00 UTC


201734Z 2018/2118 33007KT 6SM -SHRA BR OVC040
FM210100 35009KT P6SM OVC060
FM210900 36007KT P6SM -RA OVC030
KZAU FIR / North America



MET'MAP, your aeronautical weather chart ! - Copyright ORBIFLY December 2007 - Disclaimer

ORBIFLY MET'MAP TEAM :

Programming & Development : Alexandra Zaïnal
Original concept : Baudouin d'Aumeries
Technical & hardware support : Manuel Goepfert
Assistance : Marc-Olivier Méhu

Contact : metmap@orbifly.com




SOURCES & CREDITS :

   NOAA       Earth
Advisory